Time;durP1;ratioP1;P1;durP2;ratioP2;P2;SDS_P1;SDS_P2;PMS_P1;PMS_P2;Temp;Humidity;BMP_temperature;BMP_pressure;BME280_temperature;BME280_humidity;BME280_pressure;Samples;Min_cycle;Max_cycle;Signal;HPM_P1;HPM_P2
2022/03/29 00:02:25;;;;;;;19.77;14.65;;;12.10;74.80;;;;;;6011962;23;20546;-77
2022/03/29 00:04:52;;;;;;;16.33;14.00;;;12.10;75.00;;;;;;6010514;23;20208;-79
2022/03/29 00:07:19;;;;;;;18.33;14.98;;;12.10;75.10;;;;;;6011273;23;20172;-76
2022/03/29 00:09:46;;;;;;;19.58;16.67;;;12.10;75.40;;;;;;6012227;23;20208;-76
2022/03/29 00:12:15;;;;;;;17.75;15.00;;;12.10;75.20;;;;;;6012389;23;20176;-77
2022/03/29 00:14:42;;;;;;;16.40;14.40;;;12.20;75.00;;;;;;6012153;23;20218;-76
2022/03/29 00:17:09;;;;;;;16.92;14.32;;;12.10;74.80;;;;;;6012321;23;20180;-76
2022/03/29 00:19:36;;;;;;;19.38;14.73;;;12.20;75.00;;;;;;6010945;23;20212;-74
2022/03/29 00:22:03;;;;;;;18.50;14.93;;;12.10;75.40;;;;;;6010211;23;20568;-77
2022/03/29 00:24:30;;;;;;;17.83;14.70;;;12.00;75.70;;;;;;6008186;23;20208;-76
2022/03/29 00:26:58;;;;;;;17.23;14.75;;;12.00;75.50;;;;;;6012516;23;20179;-77
2022/03/29 00:29:26;;;;;;;17.65;13.93;;;12.00;75.80;;;;;;6013553;23;20211;-77
2022/03/29 00:31:53;;;;;;;20.88;16.20;;;12.00;75.90;;;;;;6017482;23;20200;-76
2022/03/29 00:34:20;;;;;;;16.70;13.95;;;11.90;76.00;;;;;;6009029;23;20227;-76
2022/03/29 00:36:47;;;;;;;20.25;15.35;;;11.90;75.90;;;;;;6009208;23;20180;-75
2022/03/29 00:39:14;;;;;;;17.02;14.18;;;11.90;75.90;;;;;;6009494;23;20204;-75
2022/03/29 00:41:42;;;;;;;16.33;13.80;;;11.80;76.20;;;;;;6009361;23;20196;-75
2022/03/29 00:44:09;;;;;;;17.30;14.07;;;11.70;76.30;;;;;;6010185;23;20207;-74
2022/03/29 00:46:39;;;;;;;18.70;15.05;;;11.70;76.60;;;;;;6010652;23;20190;-75
2022/03/29 00:49:06;;;;;;;17.90;14.20;;;11.60;76.40;;;;;;6011228;23;20207;-78
2022/03/29 00:51:34;;;;;;;17.58;15.02;;;11.60;76.60;;;;;;6011486;23;20211;-75
2022/03/29 00:54:01;;;;;;;18.55;15.32;;;11.60;76.90;;;;;;6011186;23;20199;-76
2022/03/29 00:56:28;;;;;;;17.67;15.25;;;11.50;76.90;;;;;;6011776;23;20184;-77
2022/03/29 00:58:55;;;;;;;20.15;15.68;;;11.40;77.10;;;;;;6010002;23;20215;-75
2022/03/29 01:01:24;;;;;;;18.85;15.32;;;11.40;77.20;;;;;;6008349;23;20223;-76
2022/03/29 01:03:52;;;;;;;17.70;14.55;;;11.30;77.50;;;;;;6006914;23;20684;-76
2022/03/29 01:06:19;;;;;;;17.95;14.60;;;11.30;78.10;;;;;;6007304;23;20236;-76
2022/03/29 01:08:46;;;;;;;18.30;15.07;;;11.20;77.80;;;;;;6007038;23;20203;-77
2022/03/29 01:11:14;;;;;;;19.20;15.32;;;11.20;77.90;;;;;;6006376;23;20592;-76
2022/03/29 01:13:42;;;;;;;17.05;14.52;;;11.20;78.00;;;;;;6004951;23;20665;-75
2022/03/29 01:18:56;;;;;;;20.20;16.50;;;11.10;78.10;;;;;;6005420;23;20207;-76
2022/03/29 01:21:26;;;;;;;17.10;14.00;;;11.10;78.40;;;;;;6006728;23;20196;-75
2022/03/29 01:23:55;;;;;;;15.60;13.60;;;11.10;78.10;;;;;;6007913;23;20736;-75
2022/03/29 01:26:22;;;;;;;18.38;15.23;;;11.10;78.00;;;;;;6005776;23;20253;-75
2022/03/29 01:28:50;;;;;;;17.65;14.70;;;11.10;78.30;;;;;;6004748;23;20200;-77
2022/03/29 01:31:17;;;;;;;18.67;15.40;;;11.10;78.80;;;;;;6004868;23;20208;-75
2022/03/29 01:33:46;;;;;;;17.98;14.90;;;11.00;79.00;;;;;;6004762;23;20235;-75
2022/03/29 01:36:13;;;;;;;19.42;16.38;;;11.00;79.10;;;;;;6005333;23;20187;-76
2022/03/29 01:38:40;;;;;;;17.33;14.63;;;10.90;80.10;;;;;;6004644;23;20637;-75
2022/03/29 01:41:08;;;;;;;20.58;15.73;;;10.80;80.10;;;;;;6004356;23;20579;-75
2022/03/29 01:43:35;;;;;;;17.30;14.88;;;10.80;80.10;;;;;;6003951;23;20199;-75
2022/03/29 01:46:03;;;;;;;19.63;14.63;;;10.70;80.20;;;;;;6005070;23;20470;-75
2022/03/29 01:48:30;;;;;;;19.95;15.73;;;10.60;80.40;;;;;;6004627;23;20240;-76
2022/03/29 01:50:57;;;;;;;18.35;14.02;;;10.60;80.80;;;;;;6005277;23;20207;-78
2022/03/29 01:53:25;;;;;;;17.35;15.32;;;10.60;80.60;;;;;;6005001;23;20677;-76
2022/03/29 01:55:55;;;;;;;18.38;14.93;;;10.60;80.90;;;;;;6005089;23;20286;-77
2022/03/29 01:58:24;;;;;;;18.02;14.93;;;10.60;81.10;;;;;;6007182;23;20211;-77
2022/03/29 02:00:51;;;;;;;19.90;15.73;;;10.60;81.00;;;;;;6006707;23;20671;-76
2022/03/29 02:03:18;;;;;;;19.80;16.08;;;10.50;81.20;;;;;;6002865;23;20176;-76
2022/03/29 02:05:45;;;;;;;18.02;15.25;;;10.50;81.60;;;;;;6001711;23;20203;-75
2022/03/29 02:08:13;;;;;;;18.27;14.73;;;10.50;81.90;;;;;;6004512;23;20176;-76
2022/03/29 02:10:40;;;;;;;18.05;15.60;;;10.40;82.10;;;;;;6003208;23;20203;-75
2022/03/29 02:13:09;;;;;;;17.75;15.05;;;10.40;82.40;;;;;;6004663;23;20176;-76
2022/03/29 02:15:38;;;;;;;19.00;14.23;;;10.40;82.40;;;;;;6003290;23;20533;-76
2022/03/29 02:18:05;;;;;;;18.10;14.60;;;10.30;82.50;;;;;;6004257;23;20604;-75
2022/03/29 02:20:33;;;;;;;19.42;16.10;;;10.30;82.50;;;;;;6003551;23;20204;-76
2022/03/29 02:23:04;;;;;;;19.10;15.77;;;10.30;82.50;;;;;;6004435;23;20183;-75
2022/03/29 02:25:31;;;;;;;17.73;14.77;;;10.30;82.60;;;;;;6003117;23;20203;-75
2022/03/29 02:27:59;;;;;;;20.27;16.17;;;10.20;83.00;;;;;;6003760;23;20243;-75
2022/03/29 02:30:26;;;;;;;17.67;14.90;;;10.20;82.90;;;;;;6003775;23;20208;-75
2022/03/29 02:32:54;;;;;;;15.63;13.48;;;10.10;82.80;;;;;;6003785;23;20645;-75
2022/03/29 02:35:21;;;;;;;19.30;15.15;;;10.10;82.70;;;;;;6003558;23;20211;-76
2022/03/29 02:37:48;;;;;;;18.65;15.15;;;10.10;83.90;;;;;;6003909;23;20191;-76
2022/03/29 02:40:16;;;;;;;19.50;15.73;;;10.10;83.20;;;;;;6003876;23;20199;-75
2022/03/29 02:42:44;;;;;;;19.35;16.25;;;10.10;83.20;;;;;;6004416;23;20200;-75
2022/03/29 02:45:15;;;;;;;19.65;14.65;;;10.10;83.20;;;;;;6003236;23;20543;-75
2022/03/29 02:47:43;;;;;;;19.70;15.85;;;10.00;83.20;;;;;;6004436;23;20191;-76
2022/03/29 02:50:12;;;;;;;18.17;15.27;;;10.00;83.00;;;;;;6003164;23;20629;-76
2022/03/29 02:52:48;;;;;;;18.83;15.68;;;10.00;83.40;;;;;;6003354;23;20203;-76
2022/03/29 02:55:16;;;;;;;19.40;14.88;;;9.90;83.60;;;;;;6005266;23;20782;-76
2022/03/29 02:57:43;;;;;;;20.73;15.02;;;9.90;83.90;;;;;;6006054;23;20234;-76
2022/03/29 03:00:15;;;;;;;19.77;16.05;;;9.90;84.30;;;;;;6005718;23;20231;-76
2022/03/29 03:02:42;;;;;;;17.60;14.48;;;9.90;84.50;;;;;;6005258;23;20239;-76
2022/03/29 03:05:11;;;;;;;19.60;15.57;;;9.80;84.70;;;;;;6005145;23;20267;-75
2022/03/29 03:07:39;;;;;;;18.35;15.65;;;9.80;84.40;;;;;;6005576;23;20184;-75
2022/03/29 03:10:07;;;;;;;18.75;14.85;;;9.70;84.50;;;;;;6004455;23;20207;-76
2022/03/29 03:12:37;;;;;;;19.10;15.48;;;9.70;84.80;;;;;;6005041;23;20203;-75
2022/03/29 03:15:06;;;;;;;22.95;17.40;;;9.70;85.00;;;;;;6004721;23;20207;-76
2022/03/29 03:17:33;;;;;;;20.75;16.77;;;9.70;85.10;;;;;;6004334;23;20210;-76
2022/03/29 03:20:00;;;;;;;22.35;16.85;;;9.70;85.30;;;;;;6005187;23;20263;-75
2022/03/29 03:22:28;;;;;;;19.27;15.60;;;9.70;85.40;;;;;;6006188;23;20200;-76
2022/03/29 03:24:55;;;;;;;21.52;16.25;;;9.70;85.50;;;;;;6005023;23;20268;-76
2022/03/29 03:27:23;;;;;;;19.85;16.10;;;9.70;85.60;;;;;;6006187;23;20273;-76
2022/03/29 03:29:50;;;;;;;19.13;15.65;;;9.60;85.70;;;;;;6005503;23;20207;-76
2022/03/29 03:32:17;;;;;;;17.67;14.88;;;9.60;85.60;;;;;;6005938;23;20208;-76
2022/03/29 03:34:44;;;;;;;17.40;14.82;;;9.60;85.70;;;;;;6005419;23;20211;-75
2022/03/29 03:37:11;;;;;;;20.27;16.23;;;9.60;85.90;;;;;;6006123;23;20186;-75
2022/03/29 03:39:40;;;;;;;19.73;14.73;;;9.60;86.20;;;;;;6006076;23;20379;-75
2022/03/29 03:42:09;;;;;;;17.55;14.45;;;9.60;86.20;;;;;;6007464;23;20263;-76
2022/03/29 03:44:36;;;;;;;21.50;15.73;;;9.60;86.10;;;;;;6007368;23;20235;-75
2022/03/29 03:47:04;;;;;;;18.25;14.60;;;9.60;86.40;;;;;;6007547;23;20264;-76
2022/03/29 03:49:31;;;;;;;19.33;15.32;;;9.60;86.50;;;;;;6007566;23;20212;-75
2022/03/29 03:51:58;;;;;;;18.98;15.63;;;9.60;86.50;;;;;;6009062;23;20263;-76
2022/03/29 03:54:25;;;;;;;17.83;14.32;;;9.60;86.70;;;;;;6012049;23;20854;-76
2022/03/29 03:56:54;;;;;;;17.10;14.93;;;9.60;86.70;;;;;;6011014;23;20172;-75
2022/03/29 03:59:21;;;;;;;18.23;14.50;;;9.60;86.30;;;;;;6011906;23;20220;-75
2022/03/29 04:01:48;;;;;;;18.15;15.32;;;9.60;86.20;;;;;;6012272;23;20584;-75
2022/03/29 04:04:15;;;;;;;16.80;14.77;;;9.50;86.40;;;;;;6005913;23;20180;-76
2022/03/29 04:06:42;;;;;;;18.17;14.82;;;9.50;86.70;;;;;;6004781;23;20188;-76
2022/03/29 04:09:09;;;;;;;17.92;14.50;;;9.50;86.80;;;;;;6004521;23;20567;-77
2022/03/29 04:11:36;;;;;;;19.10;14.70;;;9.40;86.80;;;;;;6005380;23;20219;-76
2022/03/29 04:14:04;;;;;;;17.27;13.60;;;9.40;87.00;;;;;;6005112;23;20207;-77
2022/03/29 04:16:31;;;;;;;17.08;13.68;;;9.30;86.70;;;;;;6004683;23;20207;-77
2022/03/29 04:18:58;;;;;;;20.40;15.90;;;9.30;87.60;;;;;;6005414;23;20525;-76
2022/03/29 04:21:26;;;;;;;19.02;14.43;;;9.30;87.00;;;;;;6004233;23;20230;-76
2022/03/29 04:23:53;;;;;;;19.70;15.98;;;9.30;87.30;;;;;;6005002;23;20663;-76
2022/03/29 04:26:20;;;;;;;20.23;15.35;;;9.20;87.50;;;;;;6003767;23;20215;-77
2022/03/29 04:28:47;;;;;;;18.50;16.08;;;9.20;87.90;;;;;;6005346;23;20176;-76
2022/03/29 04:31:15;;;;;;;17.88;15.27;;;9.20;88.00;;;;;;6004328;23;20555;-77
2022/03/29 04:33:45;;;;;;;19.95;15.70;;;9.10;88.00;;;;;;6005184;23;20239;-76
2022/03/29 04:36:12;;;;;;;19.95;16.33;;;9.10;88.10;;;;;;6004592;23;20215;-76
2022/03/29 04:38:39;;;;;;;23.08;17.50;;;9.10;88.30;;;;;;6004918;23;20231;-77
2022/03/29 04:41:06;;;;;;;20.58;17.05;;;9.10;88.40;;;;;;6004872;23;20211;-76
2022/03/29 04:43:34;;;;;;;21.17;16.08;;;9.10;88.20;;;;;;6005036;23;20176;-77
2022/03/29 04:46:01;;;;;;;20.35;16.35;;;9.10;88.20;;;;;;6004608;23;20203;-76
2022/03/29 04:48:30;;;;;;;20.20;16.33;;;9.10;88.40;;;;;;6004673;23;20191;-77
2022/03/29 04:50:57;;;;;;;20.63;16.48;;;9.10;88.40;;;;;;6004444;23;20211;-76
2022/03/29 04:53:24;;;;;;;18.67;16.15;;;9.10;88.60;;;;;;6004596;23;20207;-77
2022/03/29 04:55:51;;;;;;;22.00;16.58;;;9.00;88.60;;;;;;6004181;23;20208;-77
2022/03/29 04:58:19;;;;;;;17.23;15.05;;;9.00;89.00;;;;;;6006273;23;20186;-77
2022/03/29 05:00:46;;;;;;;19.88;16.15;;;9.00;89.00;;;;;;6004256;23;20214;-76
2022/03/29 05:03:13;;;;;;;20.05;16.65;;;8.90;89.00;;;;;;6004960;23;20172;-76
2022/03/29 05:05:41;;;;;;;20.42;16.88;;;8.90;89.50;;;;;;6003685;23;20222;-77
2022/03/29 05:08:08;;;;;;;22.75;17.80;;;8.80;89.10;;;;;;6004584;23;20194;-76
2022/03/29 05:10:36;;;;;;;23.30;17.77;;;8.80;89.50;;;;;;6004504;23;20563;-77
2022/03/29 05:13:03;;;;;;;24.33;17.55;;;8.80;89.70;;;;;;6004395;23;20259;-77
2022/03/29 05:15:30;;;;;;;20.55;16.08;;;8.80;89.90;;;;;;6004232;23;20246;-76
2022/03/29 05:17:57;;;;;;;21.23;16.58;;;8.80;89.90;;;;;;6004726;23;20180;-76
2022/03/29 05:20:24;;;;;;;22.63;16.85;;;8.90;90.30;;;;;;6003789;23;20240;-77
2022/03/29 05:22:55;;;;;;;21.45;16.70;;;8.80;89.70;;;;;;6004373;23;20668;-77
2022/03/29 05:25:23;;;;;;;22.95;17.10;;;8.80;89.80;;;;;;6003776;23;20242;-77
2022/03/29 05:27:51;;;;;;;19.77;15.90;;;8.80;89.80;;;;;;6004688;23;20191;-77
2022/03/29 05:30:19;;;;;;;22.50;17.58;;;8.80;89.90;;;;;;6004360;23;20176;-76
2022/03/29 05:32:46;;;;;;;26.85;19.08;;;8.80;89.90;;;;;;6004704;23;20247;-76
2022/03/29 05:35:13;;;;;;;23.92;18.67;;;8.80;89.80;;;;;;6003429;23;20180;-77
2022/03/29 05:37:42;;;;;;;24.02;18.52;;;8.90;90.00;;;;;;6004399;23;20664;-77
2022/03/29 05:40:13;;;;;;;23.17;17.38;;;8.90;89.90;;;;;;6004255;23;20596;-75
2022/03/29 05:42:40;;;;;;;19.80;15.18;;;9.00;89.90;;;;;;6003365;23;20188;-77
2022/03/29 05:45:08;;;;;;;20.73;16.23;;;9.10;89.90;;;;;;6003949;23;20179;-76
2022/03/29 05:50:20;;;;;;;18.42;15.60;;;9.20;90.00;;;;;;6004069;23;20163;-77
2022/03/29 05:52:47;;;;;;;17.30;15.05;;;9.20;90.00;;;;;;6003821;23;20200;-75
2022/03/29 05:55:16;;;;;;;21.33;15.30;;;9.30;90.10;;;;;;6003936;23;20179;-76
2022/03/29 05:57:43;;;;;;;20.23;16.13;;;9.40;90.00;;;;;;6031644;23;20525;-76
2022/03/29 06:00:12;;;;;;;15.98;13.90;;;9.50;90.00;;;;;;6031555;23;20234;-78
2022/03/29 06:02:39;;;;;;;18.63;15.02;;;9.60;90.10;;;;;;6031326;23;20217;-77
2022/03/29 06:05:09;;;;;;;18.13;15.10;;;9.70;90.00;;;;;;6032497;23;20179;-77
2022/03/29 06:07:36;;;;;;;17.85;14.93;;;9.80;90.00;;;;;;6031340;23;20210;-77
2022/03/29 06:10:05;;;;;;;20.23;15.57;;;10.10;90.00;;;;;;6032651;23;20178;-77
2022/03/29 06:12:36;;;;;;;21.77;15.85;;;10.30;88.50;;;;;;6030987;23;20203;-76
2022/03/29 06:15:04;;;;;;;17.88;15.15;;;10.50;88.20;;;;;;6032209;23;20246;-77
2022/03/29 06:17:31;;;;;;;19.15;15.25;;;10.70;87.90;;;;;;6031653;23;20582;-77
2022/03/29 06:19:58;;;;;;;19.52;16.50;;;10.80;87.60;;;;;;6031999;23;20186;-76
2022/03/29 06:22:25;;;;;;;19.58;15.52;;;10.90;88.30;;;;;;6031172;23;20210;-77
2022/03/29 06:24:52;;;;;;;20.58;16.45;;;10.80;88.20;;;;;;6031277;23;20265;-75
2022/03/29 06:27:19;;;;;;;23.13;17.55;;;10.80;88.70;;;;;;6030932;23;20218;-76
2022/03/29 06:29:48;;;;;;;21.70;17.30;;;10.70;89.00;;;;;;6033852;23;20335;-76
2022/03/29 06:32:15;;;;;;;21.80;16.27;;;10.80;88.70;;;;;;6032620;23;20281;-77
2022/03/29 06:34:42;;;;;;;22.65;17.30;;;10.80;88.90;;;;;;6033594;23;20656;-75
2022/03/29 06:37:11;;;;;;;23.45;18.20;;;10.80;88.50;;;;;;6032827;23;20207;-76
2022/03/29 06:39:38;;;;;;;21.58;16.88;;;10.90;88.10;;;;;;6033913;23;20262;-77
2022/03/29 06:42:05;;;;;;;20.02;16.27;;;10.80;88.90;;;;;;6033388;23;20214;-77
2022/03/29 06:44:33;;;;;;;22.35;17.05;;;10.60;87.60;;;;;;6034073;23;20183;-76
2022/03/29 06:47:02;;;;;;;19.30;15.68;;;10.60;87.70;;;;;;6033006;23;20207;-77
2022/03/29 06:49:30;;;;;;;22.15;18.02;;;10.50;87.70;;;;;;6034145;23;20183;-77
2022/03/29 06:52:00;;;;;;;18.40;15.68;;;10.50;87.70;;;;;;6033006;23;20214;-77
2022/03/29 06:54:29;;;;;;;18.38;15.68;;;10.50;87.50;;;;;;6034007;23;20194;-76
2022/03/29 06:56:56;;;;;;;21.15;15.95;;;10.40;87.30;;;;;;6033484;23;20684;-77
2022/03/29 06:59:23;;;;;;;18.10;15.85;;;10.40;87.60;;;;;;6034042;23;20206;-77
2022/03/29 07:01:50;;;;;;;20.65;16.30;;;10.40;87.30;;;;;;6032626;23;20214;-76
2022/03/29 07:04:19;;;;;;;19.95;15.45;;;10.40;86.70;;;;;;6033001;23;20183;-77
2022/03/29 07:06:46;;;;;;;20.10;15.70;;;10.40;87.00;;;;;;6032385;23;20210;-77
2022/03/29 07:11:57;;;;;;;21.15;16.55;;;10.50;88.70;;;;;;6033283;23;20249;-76
2022/03/29 07:14:24;;;;;;;19.02;16.15;;;10.60;89.80;;;;;;6032741;23;20190;-77
2022/03/29 07:16:51;;;;;;;19.02;15.90;;;10.70;89.50;;;;;;6031982;23;20211;-75
2022/03/29 07:19:19;;;;;;;18.52;15.73;;;10.90;89.80;;;;;;6033879;23;20179;-76
2022/03/29 07:21:48;;;;;;;17.75;15.82;;;11.10;90.20;;;;;;6032826;23;20390;-76
2022/03/29 07:24:15;;;;;;;17.35;14.98;;;11.20;90.00;;;;;;6033942;23;20182;-76
2022/03/29 07:26:42;;;;;;;20.38;15.75;;;11.30;88.80;;;;;;6031989;23;20215;-77
2022/03/29 07:29:09;;;;;;;19.48;15.68;;;11.40;88.20;;;;;;6033374;23;20656;-76
2022/03/29 07:31:37;;;;;;;20.40;16.35;;;11.40;88.60;;;;;;6032743;23;20237;-77
2022/03/29 07:34:05;;;;;;;20.02;17.35;;;11.40;88.60;;;;;;6033728;23;20235;-77
2022/03/29 07:36:34;;;;;;;21.23;17.40;;;11.50;89.10;;;;;;6033458;23;20691;-76
2022/03/29 07:39:01;;;;;;;19.77;16.92;;;11.70;89.00;;;;;;6033014;23;20201;-77
2022/03/29 07:41:28;;;;;;;20.80;16.95;;;11.90;89.00;;;;;;6033119;23;20266;-77
2022/03/29 07:43:55;;;;;;;19.48;15.57;;;12.00;89.70;;;;;;6034126;23;20198;-76
2022/03/29 07:46:23;;;;;;;19.30;17.00;;;12.20;88.60;;;;;;6033634;23;20206;-76
2022/03/29 07:48:50;;;;;;;22.85;17.25;;;12.40;88.60;;;;;;6033767;23;20485;-77
2022/03/29 07:51:17;;;;;;;23.40;18.27;;;12.40;88.20;;;;;;6032825;23;20207;-77
2022/03/29 07:53:46;;;;;;;19.85;16.52;;;12.50;88.30;;;;;;6033494;23;20201;-76
2022/03/29 07:56:13;;;;;;;19.85;17.13;;;12.40;88.00;;;;;;6032174;23;20691;-77
2022/03/29 07:58:40;;;;;;;23.33;18.67;;;12.50;88.90;;;;;;6033604;23;20198;-77
2022/03/29 08:03:54;;;;;;;23.02;18.23;;;12.40;90.00;;;;;;6033253;23;20349;-77
2022/03/29 08:06:22;;;;;;;21.92;18.77;;;12.60;89.30;;;;;;6038347;23;20203;-81
2022/03/29 08:08:53;;;;;;;24.15;19.73;;;12.80;88.80;;;;;;6041728;23;20536;-76
2022/03/29 08:11:21;;;;;;;22.40;18.88;;;13.00;88.40;;;;;;6041422;23;20560;-77
2022/03/29 08:13:49;;;;;;;21.95;18.88;;;13.10;87.50;;;;;;6042058;23;20290;-78
2022/03/29 08:16:16;;;;;;;22.27;18.45;;;13.10;87.60;;;;;;6036050;23;20207;-79
2022/03/29 08:18:43;;;;;;;22.50;19.10;;;13.10;86.70;;;;;;6012026;23;20180;-79
2022/03/29 08:23:52;;;;;;;23.50;17.42;;;13.00;87.00;;;;;;6011961;23;20572;-77
2022/03/29 08:26:20;;;;;;;23.20;19.08;;;13.00;86.20;;;;;;6011905;23;20215;-78
2022/03/29 08:28:47;;;;;;;26.02;18.85;;;13.10;85.80;;;;;;6018122;23;20184;-77
2022/03/29 08:31:14;;;;;;;22.52;17.77;;;13.10;86.20;;;;;;6011897;23;20210;-74
2022/03/29 08:33:41;;;;;;;20.30;18.00;;;13.10;85.30;;;;;;6008359;23;20203;-79
2022/03/29 08:36:08;;;;;;;18.98;15.88;;;13.30;85.10;;;;;;6013487;23;20203;-77
2022/03/29 08:38:35;;;;;;;24.73;19.42;;;13.40;84.50;;;;;;6016182;23;20180;-78
2022/03/29 08:41:06;;;;;;;23.17;17.85;;;13.60;84.20;;;;;;6017356;23;20188;-78
2022/03/29 08:43:33;;;;;;;24.20;18.20;;;13.90;84.00;;;;;;6017508;23;20192;-77
2022/03/29 08:46:00;;;;;;;23.08;18.63;;;14.20;82.90;;;;;;6015734;23;20195;-77
2022/03/29 08:48:29;;;;;;;28.25;19.40;;;14.40;82.60;;;;;;6015496;23;20644;-77
2022/03/29 08:50:59;;;;;;;24.63;18.70;;;14.40;81.80;;;;;;6017707;23;20184;-77
2022/03/29 08:53:28;;;;;;;24.38;18.73;;;14.20;81.90;;;;;;6018125;23;20726;-77
2022/03/29 08:55:55;;;;;;;25.02;19.17;;;14.20;83.10;;;;;;6017229;23;20180;-76
2022/03/29 08:58:24;;;;;;;22.25;18.58;;;14.20;82.20;;;;;;6013363;23;20215;-76
2022/03/29 09:00:53;;;;;;;23.30;18.48;;;14.60;82.40;;;;;;6015891;23;20707;-79
2022/03/29 09:03:20;;;;;;;26.42;20.13;;;15.10;82.20;;;;;;6013024;23;20318;-75
2022/03/29 09:05:49;;;;;;;22.23;19.27;;;15.60;78.20;;;;;;6012511;23;20210;-77
2022/03/29 09:08:17;;;;;;;24.42;18.95;;;15.80;78.20;;;;;;6008499;23;20204;-79
2022/03/29 09:10:45;;;;;;;21.35;18.50;;;15.80;77.30;;;;;;6011716;23;20206;-76
2022/03/29 09:13:17;;;;;;;23.02;19.25;;;15.80;76.50;;;;;;6009577;23;20212;-80
2022/03/29 09:15:47;;;;;;;22.33;18.35;;;16.00;77.30;;;;;;6008357;23;20667;-74
2022/03/29 09:18:14;;;;;;;21.90;18.88;;;16.30;77.00;;;;;;6007314;23;20208;-76
2022/03/29 09:20:41;;;;;;;23.25;18.40;;;16.50;75.40;;;;;;6015498;23;20194;-77
2022/03/29 09:23:14;;;;;;;23.85;19.33;;;16.60;74.50;;;;;;6017909;23;20214;-75
2022/03/29 09:25:47;;;;;;;22.30;18.85;;;16.40;74.70;;;;;;6015814;23;20160;-76
2022/03/29 09:28:15;;;;;;;23.77;19.48;;;16.40;74.80;;;;;;6012637;23;20281;-78
2022/03/29 09:30:46;;;;;;;23.13;19.48;;;16.30;75.10;;;;;;6016748;23;20187;-79
2022/03/29 09:33:15;;;;;;;23.23;18.02;;;16.60;75.50;;;;;;6010502;23;20399;-77
2022/03/29 09:35:58;;;;;;;24.75;18.73;;;16.70;73.90;;;;;;6011147;23;20180;-78
2022/03/29 09:38:27;;;;;;;24.63;19.42;;;16.80;73.30;;;;;;6013102;23;20209;-77
2022/03/29 09:40:55;;;;;;;22.92;18.13;;;16.90;72.90;;;;;;6010428;23;20520;-75
2022/03/29 09:43:23;;;;;;;22.95;19.48;;;17.20;73.30;;;;;;6008236;23;20684;-77
2022/03/29 09:45:55;;;;;;;22.95;19.10;;;17.10;72.50;;;;;;6005709;23;20180;-75
2022/03/29 09:48:28;;;;;;;28.67;20.23;;;17.10;73.00;;;;;;6006675;23;20286;-76
2022/03/29 09:50:57;;;;;;;24.30;19.40;;;17.20;73.00;;;;;;6006618;23;20160;-78
2022/03/29 09:53:38;;;;;;;20.60;18.40;;;17.20;72.60;;;;;;6005987;23;20204;-76
2022/03/29 09:56:06;;;;;;;24.98;19.67;;;17.40;71.70;;;;;;6005713;23;20571;-75
2022/03/29 09:58:33;;;;;;;25.85;19.38;;;17.50;71.50;;;;;;6005602;23;20215;-78
2022/03/29 10:01:05;;;;;;;26.70;20.20;;;17.80;71.70;;;;;;6005276;23;20168;-76
2022/03/29 10:03:34;;;;;;;21.52;18.60;;;17.70;71.60;;;;;;6003698;23;20831;-76
2022/03/29 10:06:05;;;;;;;24.48;20.60;;;17.80;71.10;;;;;;6004513;23;20199;-76
2022/03/29 10:11:21;;;;;;;23.92;20.25;;;18.10;70.50;;;;;;6003804;23;20574;-76
2022/03/29 10:13:49;;;;;;;24.15;20.58;;;18.50;69.10;;;;;;6005030;23;20223;-78
2022/03/29 10:16:18;;;;;;;24.88;19.58;;;18.50;68.50;;;;;;6004511;23;20179;-76
2022/03/29 10:18:47;;;;;;;26.98;20.10;;;18.40;68.70;;;;;;6004829;23;20180;-78
2022/03/29 10:21:16;;;;;;;23.15;20.15;;;18.10;68.00;;;;;;6004443;23;20184;-76
2022/03/29 10:23:45;;;;;;;23.90;20.00;;;17.50;69.00;;;;;;6004125;23;20196;-77
2022/03/29 10:26:17;;;;;;;25.83;19.52;;;17.00;70.40;;;;;;6005511;23;20211;-77
2022/03/29 10:28:46;;;;;;;23.92;18.70;;;16.80;71.20;;;;;;6004368;23;20503;-76
2022/03/29 10:31:36;;;;;;;23.85;19.65;;;16.90;71.60;;;;;;6005382;23;20180;-77
2022/03/29 10:34:18;;;;;;;22.83;18.63;;;16.90;72.00;;;;;;6003987;23;20258;-76
2022/03/29 10:37:10;;;;;;;24.92;19.55;;;17.10;71.70;;;;;;6006210;23;20380;-78
2022/03/29 10:39:52;;;;;;;24.40;19.25;;;17.10;71.10;;;;;;6032892;23;20163;-79
2022/03/29 10:42:28;;;;;;;23.10;19.30;;;17.20;70.90;;;;;;6033438;23;20285;-76
2022/03/29 10:45:09;;;;;;;25.15;19.23;;;17.30;70.50;;;;;;6033433;23;20163;-76
2022/03/29 10:47:38;;;;;;;21.98;18.98;;;17.30;70.80;;;;;;6032909;23;20738;-77
2022/03/29 10:50:07;;;;;;;25.10;19.02;;;17.20;70.70;;;;;;6033014;23;20176;-76
2022/03/29 10:52:42;;;;;;;27.60;21.88;;;17.40;70.40;;;;;;6032312;23;20734;-78
2022/03/29 10:55:21;;;;;;;22.25;18.25;;;17.40;70.50;;;;;;6032553;23;20757;-78
2022/03/29 10:58:10;;;;;;;21.23;18.55;;;17.80;70.90;;;;;;6032446;23;20217;-78
2022/03/29 11:00:40;;;;;;;21.88;17.15;;;18.30;70.50;;;;;;6028482;23;20231;-78
2022/03/29 11:03:16;;;;;;;24.65;19.88;;;18.70;69.30;;;;;;6032652;23;20210;-75
2022/03/29 11:06:06;;;;;;;21.55;17.60;;;18.90;68.50;;;;;;6032917;23;20163;-76
2022/03/29 11:08:34;;;;;;;22.33;19.05;;;18.50;67.40;;;;;;6037693;23;20206;-76
2022/03/29 11:11:01;;;;;;;21.25;18.67;;;18.30;68.70;;;;;;6032887;23;20175;-77
2022/03/29 11:13:29;;;;;;;21.58;17.40;;;18.00;69.00;;;;;;6032572;23;20203;-77
2022/03/29 11:16:01;;;;;;;21.77;19.08;;;17.90;69.20;;;;;;6034460;23;20491;-77
2022/03/29 11:18:50;;;;;;;23.58;19.92;;;18.00;70.10;;;;;;6035101;23;20261;-79
2022/03/29 11:21:38;;;;;;;21.98;19.25;;;17.90;68.80;;;;;;6034938;23;20205;-76
2022/03/29 11:24:13;;;;;;;23.60;19.77;;;17.80;68.70;;;;;;6034386;23;20570;-77
2022/03/29 11:26:54;;;;;;;23.02;19.20;;;17.60;69.80;;;;;;6035909;23;20250;-78
2022/03/29 11:29:22;;;;;;;23.20;19.08;;;17.50;70.20;;;;;;6034095;23;20659;-79
2022/03/29 11:31:54;;;;;;;24.83;19.85;;;17.60;70.30;;;;;;6034447;23;20226;-78
2022/03/29 11:34:23;;;;;;;24.20;19.35;;;17.70;70.30;;;;;;6033599;23;20207;-78
2022/03/29 11:36:50;;;;;;;22.17;19.35;;;17.80;70.10;;;;;;6034241;23;20182;-77
2022/03/29 11:39:28;;;;;;;29.17;21.85;;;18.00;70.10;;;;;;6033985;23;20207;-80
2022/03/29 11:41:56;;;;;;;25.42;22.10;;;18.20;71.10;;;;;;6034827;23;20195;-77
2022/03/29 11:44:25;;;;;;;25.98;21.92;;;18.50;70.20;;;;;;6033180;23;20391;-77
2022/03/29 11:46:55;;;;;;;28.15;23.13;;;18.80;70.20;;;;;;6034627;23;20183;-77
2022/03/29 11:49:26;;;;;;;33.90;24.63;;;19.00;69.50;;;;;;6033637;23;20207;-76
2022/03/29 11:52:12;;;;;;;26.67;22.75;;;19.10;69.10;;;;;;6034747;23;20199;-76
2022/03/29 11:54:42;;;;;;;33.03;24.50;;;19.30;67.90;;;;;;6033366;23;20289;-75
2022/03/29 11:57:17;;;;;;;31.67;23.50;;;19.50;68.60;;;;;;6034796;23;20179;-76
2022/03/29 11:59:45;;;;;;;28.83;22.77;;;19.30;68.80;;;;;;6033685;23;20187;-76
2022/03/29 12:02:12;;;;;;;33.55;23.08;;;19.30;68.80;;;;;;6046958;23;20203;-76
2022/03/29 12:04:40;;;;;;;26.73;22.48;;;19.10;68.50;;;;;;6033746;23;20264;-76
2022/03/29 12:07:07;;;;;;;27.48;23.25;;;19.10;68.70;;;;;;6035169;23;20190;-76
2022/03/29 12:09:34;;;;;;;26.88;23.65;;;18.90;70.00;;;;;;6034935;23;20214;-76
2022/03/29 12:12:03;;;;;;;28.88;23.00;;;18.50;70.20;;;;;;6035524;23;20202;-76
2022/03/29 12:14:32;;;;;;;26.48;22.58;;;18.30;71.60;;;;;;6034254;23;20211;-76
2022/03/29 12:17:03;;;;;;;27.00;22.40;;;18.10;71.60;;;;;;6034538;23;20718;-76
2022/03/29 12:19:32;;;;;;;29.65;23.25;;;17.90;72.40;;;;;;6034245;23;20206;-77
2022/03/29 12:22:02;;;;;;;24.73;22.05;;;17.80;72.70;;;;;;6033976;23;20202;-77
2022/03/29 12:24:33;;;;;;;27.85;23.60;;;17.90;72.60;;;;;;6033895;23;20537;-77
2022/03/29 12:27:05;;;;;;;26.33;22.08;;;18.00;72.60;;;;;;6033742;23;20175;-77
2022/03/29 12:29:34;;;;;;;28.08;22.88;;;18.10;72.00;;;;;;6033964;23;20211;-77
2022/03/29 12:32:03;;;;;;;29.20;23.52;;;18.10;71.70;;;;;;6033924;23;20221;-77
2022/03/29 12:34:32;;;;;;;30.02;24.42;;;18.10;72.30;;;;;;6033020;23;20222;-76
2022/03/29 12:37:01;;;;;;;29.17;25.65;;;17.90;71.10;;;;;;6034120;23;20179;-77
2022/03/29 12:39:34;;;;;;;31.00;24.33;;;17.70;71.50;;;;;;6033661;23;20229;-77
2022/03/29 12:42:01;;;;;;;29.20;24.83;;;17.60;72.10;;;;;;6034144;23;20270;-76
2022/03/29 12:44:35;;;;;;;26.73;22.23;;;17.70;71.30;;;;;;6033440;23;20203;-77
2022/03/29 12:47:04;;;;;;;39.25;28.25;;;17.90;71.90;;;;;;6033629;23;20151;-77
2022/03/29 12:49:32;;;;;;;39.78;29.35;;;18.00;68.80;;;;;;6034076;23;20202;-76
2022/03/29 12:52:02;;;;;;;37.30;29.20;;;18.00;67.10;;;;;;6033823;23;20199;-75
2022/03/29 12:54:40;;;;;;;41.70;32.60;;;18.10;66.70;;;;;;6035638;23;20202;-76
2022/03/29 12:57:10;;;;;;;38.03;29.23;;;18.00;66.20;;;;;;6035741;23;20175;-77